sensor_id;sensor_type;location;lat;lon;timestamp;temperature;humidity
20400;DHT22;10359;53.596;22.520;2022-10-17T00:02:25;12.90;1.00
20400;DHT22;10359;53.596;22.520;2022-10-17T00:04:54;12.90;1.00
20400;DHT22;10359;53.596;22.520;2022-10-17T00:10:43;12.90;1.00
20400;DHT22;10359;53.596;22.520;2022-10-17T00:13:18;12.80;1.00
20400;DHT22;10359;53.596;22.520;2022-10-17T00:16:01;12.80;1.00
20400;DHT22;10359;53.596;22.520;2022-10-17T00:18:30;12.80;1.00
20400;DHT22;10359;53.596;22.520;2022-10-17T00:20:59;12.80;1.00
20400;DHT22;10359;53.596;22.520;2022-10-17T00:23:28;12.70;1.00
20400;DHT22;10359;53.596;22.520;2022-10-17T00:25:59;12.70;1.00
20400;DHT22;10359;53.596;22.520;2022-10-17T00:28:28;12.60;1.00
20400;DHT22;10359;53.596;22.520;2022-10-17T00:30:58;12.70;1.00
20400;DHT22;10359;53.596;22.520;2022-10-17T00:33:27;12.50;1.00
20400;DHT22;10359;53.596;22.520;2022-10-17T00:36:04;12.60;1.00
20400;DHT22;10359;53.596;22.520;2022-10-17T00:38:34;12.60;1.00
20400;DHT22;10359;53.596;22.520;2022-10-17T00:41:06;12.60;1.00
20400;DHT22;10359;53.596;22.520;2022-10-17T00:44:05;12.60;1.00
20400;DHT22;10359;53.596;22.520;2022-10-17T00:46:36;12.50;1.00
20400;DHT22;10359;53.596;22.520;2022-10-17T00:49:07;12.50;1.00
20400;DHT22;10359;53.596;22.520;2022-10-17T00:51:40;12.50;1.00
20400;DHT22;10359;53.596;22.520;2022-10-17T00:54:12;12.50;1.00
20400;DHT22;10359;53.596;22.520;2022-10-17T00:56:43;12.40;1.00
20400;DHT22;10359;53.596;22.520;2022-10-17T00:59:13;12.40;1.00
20400;DHT22;10359;53.596;22.520;2022-10-17T01:01:50;12.40;1.00
20400;DHT22;10359;53.596;22.520;2022-10-17T01:04:21;12.30;1.00
20400;DHT22;10359;53.596;22.520;2022-10-17T01:06:50;12.30;1.00
20400;DHT22;10359;53.596;22.520;2022-10-17T01:09:19;12.20;1.00
20400;DHT22;10359;53.596;22.520;2022-10-17T01:12:05;12.20;1.00
20400;DHT22;10359;53.596;22.520;2022-10-17T01:14:40;12.10;1.00
20400;DHT22;10359;53.596;22.520;2022-10-17T01:17:18;12.10;1.00
20400;DHT22;10359;53.596;22.520;2022-10-17T01:20:07;12.00;1.00
20400;DHT22;10359;53.596;22.520;2022-10-17T01:22:46;12.00;1.00
20400;DHT22;10359;53.596;22.520;2022-10-17T01:25:25;12.00;1.00
20400;DHT22;10359;53.596;22.520;2022-10-17T01:28:10;12.00;1.00
20400;DHT22;10359;53.596;22.520;2022-10-17T01:30:58;12.00;1.00
20400;DHT22;10359;53.596;22.520;2022-10-17T01:33:45;11.90;1.00
20400;DHT22;10359;53.596;22.520;2022-10-17T01:36:23;11.90;1.00
20400;DHT22;10359;53.596;22.520;2022-10-17T01:38:59;11.90;1.00
20400;DHT22;10359;53.596;22.520;2022-10-17T01:41:34;11.90;1.00
20400;DHT22;10359;53.596;22.520;2022-10-17T01:44:10;11.80;1.00
20400;DHT22;10359;53.596;22.520;2022-10-17T01:46:45;11.80;1.00
20400;DHT22;10359;53.596;22.520;2022-10-17T01:49:19;11.80;1.00
20400;DHT22;10359;53.596;22.520;2022-10-17T01:51:54;11.70;1.00
20400;DHT22;10359;53.596;22.520;2022-10-17T01:54:28;11.80;1.00
20400;DHT22;10359;53.596;22.520;2022-10-17T01:57:03;11.70;1.00
20400;DHT22;10359;53.596;22.520;2022-10-17T01:59:37;11.70;1.00
20400;DHT22;10359;53.596;22.520;2022-10-17T02:02:09;11.70;1.00
20400;DHT22;10359;53.596;22.520;2022-10-17T02:04:40;11.60;1.00
20400;DHT22;10359;53.596;22.520;2022-10-17T02:07:11;11.60;1.00
20400;DHT22;10359;53.596;22.520;2022-10-17T02:09:40;11.60;1.00
20400;DHT22;10359;53.596;22.520;2022-10-17T02:12:15;11.60;1.00
20400;DHT22;10359;53.596;22.520;2022-10-17T02:14:58;11.50;1.00
20400;DHT22;10359;53.596;22.520;2022-10-17T02:17:43;11.50;1.00
20400;DHT22;10359;53.596;22.520;2022-10-17T02:20:19;11.50;1.00
20400;DHT22;10359;53.596;22.520;2022-10-17T02:22:54;11.40;1.00
20400;DHT22;10359;53.596;22.520;2022-10-17T02:25:33;11.60;1.00
20400;DHT22;10359;53.596;22.520;2022-10-17T02:28:12;11.70;1.00
20400;DHT22;10359;53.596;22.520;2022-10-17T02:30:50;11.80;1.00
20400;DHT22;10359;53.596;22.520;2022-10-17T02:33:24;12.00;1.00
20400;DHT22;10359;53.596;22.520;2022-10-17T02:35:58;12.10;1.00
20400;DHT22;10359;53.596;22.520;2022-10-17T02:38:28;12.20;1.00
20400;DHT22;10359;53.596;22.520;2022-10-17T02:40:59;12.30;1.00
20400;DHT22;10359;53.596;22.520;2022-10-17T02:43:29;12.40;1.00
20400;DHT22;10359;53.596;22.520;2022-10-17T02:45:59;12.50;1.00
20400;DHT22;10359;53.596;22.520;2022-10-17T02:48:37;12.60;1.00
20400;DHT22;10359;53.596;22.520;2022-10-17T02:51:14;12.60;1.00
20400;DHT22;10359;53.596;22.520;2022-10-17T02:53:53;12.60;1.00
20400;DHT22;10359;53.596;22.520;2022-10-17T02:56:25;12.70;1.00
20400;DHT22;10359;53.596;22.520;2022-10-17T02:58:57;12.80;1.00
20400;DHT22;10359;53.596;22.520;2022-10-17T03:01:28;12.80;1.00
20400;DHT22;10359;53.596;22.520;2022-10-17T03:04:07;12.80;1.00
20400;DHT22;10359;53.596;22.520;2022-10-17T03:06:37;12.80;1.00
20400;DHT22;10359;53.596;22.520;2022-10-17T03:09:07;12.80;1.00
20400;DHT22;10359;53.596;22.520;2022-10-17T03:11:37;12.80;1.00
20400;DHT22;10359;53.596;22.520;2022-10-17T03:14:07;12.80;1.00
20400;DHT22;10359;53.596;22.520;2022-10-17T03:16:37;12.80;1.00
20400;DHT22;10359;53.596;22.520;2022-10-17T03:19:08;12.80;1.00
20400;DHT22;10359;53.596;22.520;2022-10-17T03:21:37;12.80;1.00
20400;DHT22;10359;53.596;22.520;2022-10-17T03:24:07;12.90;1.00
20400;DHT22;10359;53.596;22.520;2022-10-17T03:26:37;12.90;1.00
20400;DHT22;10359;53.596;22.520;2022-10-17T03:29:06;12.90;1.00
20400;DHT22;10359;53.596;22.520;2022-10-17T03:31:35;12.90;1.00
20400;DHT22;10359;53.596;22.520;2022-10-17T03:34:04;13.00;1.00
20400;DHT22;10359;53.596;22.520;2022-10-17T03:36:35;13.00;1.00
20400;DHT22;10359;53.596;22.520;2022-10-17T03:39:04;13.00;1.00
20400;DHT22;10359;53.596;22.520;2022-10-17T03:41:33;13.10;1.00
20400;DHT22;10359;53.596;22.520;2022-10-17T03:44:03;13.10;1.00
20400;DHT22;10359;53.596;22.520;2022-10-17T03:46:32;13.10;1.00
20400;DHT22;10359;53.596;22.520;2022-10-17T03:49:02;13.10;1.00
20400;DHT22;10359;53.596;22.520;2022-10-17T03:51:34;13.20;1.00
20400;DHT22;10359;53.596;22.520;2022-10-17T03:54:03;13.20;1.00
20400;DHT22;10359;53.596;22.520;2022-10-17T03:56:33;13.20;99.90
20400;DHT22;10359;53.596;22.520;2022-10-17T03:59:02;13.20;99.90
20400;DHT22;10359;53.596;22.520;2022-10-17T04:01:31;13.10;99.90
20400;DHT22;10359;53.596;22.520;2022-10-17T04:04:00;13.10;99.90
20400;DHT22;10359;53.596;22.520;2022-10-17T04:06:31;13.20;99.90
20400;DHT22;10359;53.596;22.520;2022-10-17T04:09:01;13.20;99.90
20400;DHT22;10359;53.596;22.520;2022-10-17T04:11:31;13.10;99.90
20400;DHT22;10359;53.596;22.520;2022-10-17T04:14:00;13.20;99.90
20400;DHT22;10359;53.596;22.520;2022-10-17T04:16:30;13.10;99.90
20400;DHT22;10359;53.596;22.520;2022-10-17T04:19:00;13.10;99.90
20400;DHT22;10359;53.596;22.520;2022-10-17T04:21:29;13.10;99.90
20400;DHT22;10359;53.596;22.520;2022-10-17T04:24:01;13.20;99.90
20400;DHT22;10359;53.596;22.520;2022-10-17T04:26:30;13.10;99.90
20400;DHT22;10359;53.596;22.520;2022-10-17T04:28:59;13.10;99.90
20400;DHT22;10359;53.596;22.520;2022-10-17T04:31:28;13.10;99.90
20400;DHT22;10359;53.596;22.520;2022-10-17T04:33:57;13.10;99.90
20400;DHT22;10359;53.596;22.520;2022-10-17T04:36:27;13.10;99.90
20400;DHT22;10359;53.596;22.520;2022-10-17T04:38:56;13.00;99.90
20400;DHT22;10359;53.596;22.520;2022-10-17T04:41:27;13.00;99.90
20400;DHT22;10359;53.596;22.520;2022-10-17T04:43:56;13.00;99.90
20400;DHT22;10359;53.596;22.520;2022-10-17T04:46:25;12.90;99.90
20400;DHT22;10359;53.596;22.520;2022-10-17T04:48:55;12.80;99.90
20400;DHT22;10359;53.596;22.520;2022-10-17T04:51:24;12.80;99.90
20400;DHT22;10359;53.596;22.520;2022-10-17T04:53:54;12.80;99.90
20400;DHT22;10359;53.596;22.520;2022-10-17T04:56:26;12.80;99.90
20400;DHT22;10359;53.596;22.520;2022-10-17T04:58:55;12.90;99.90
20400;DHT22;10359;53.596;22.520;2022-10-17T05:01:25;12.90;99.90
20400;DHT22;10359;53.596;22.520;2022-10-17T05:03:55;12.80;99.90
20400;DHT22;10359;53.596;22.520;2022-10-17T05:06:25;12.90;99.90
20400;DHT22;10359;53.596;22.520;2022-10-17T05:08:57;12.90;99.90
20400;DHT22;10359;53.596;22.520;2022-10-17T05:11:28;12.80;99.90
20400;DHT22;10359;53.596;22.520;2022-10-17T05:13:59;12.90;99.90
20400;DHT22;10359;53.596;22.520;2022-10-17T05:16:29;12.90;99.90
20400;DHT22;10359;53.596;22.520;2022-10-17T05:18:58;12.90;99.90
20400;DHT22;10359;53.596;22.520;2022-10-17T05:21:30;12.90;99.90
20400;DHT22;10359;53.596;22.520;2022-10-17T05:24:05;12.80;99.90
20400;DHT22;10359;53.596;22.520;2022-10-17T05:26:36;12.80;99.90
20400;DHT22;10359;53.596;22.520;2022-10-17T05:29:05;12.70;99.90
20400;DHT22;10359;53.596;22.520;2022-10-17T05:31:34;12.70;99.90
20400;DHT22;10359;53.596;22.520;2022-10-17T05:34:04;12.70;99.90
20400;DHT22;10359;53.596;22.520;2022-10-17T05:36:38;12.70;99.90
20400;DHT22;10359;53.596;22.520;2022-10-17T05:39:07;12.80;99.90
20400;DHT22;10359;53.596;22.520;2022-10-17T05:41:38;12.80;99.90
20400;DHT22;10359;53.596;22.520;2022-10-17T05:44:07;12.80;99.90
20400;DHT22;10359;53.596;22.520;2022-10-17T05:46:36;12.80;99.90
20400;DHT22;10359;53.596;22.520;2022-10-17T05:49:08;12.90;99.90
20400;DHT22;10359;53.596;22.520;2022-10-17T05:51:57;13.00;99.90
20400;DHT22;10359;53.596;22.520;2022-10-17T05:54:27;13.10;99.90
20400;DHT22;10359;53.596;22.520;2022-10-17T05:56:58;13.10;99.90
20400;DHT22;10359;53.596;22.520;2022-10-17T05:59:27;13.10;99.90
20400;DHT22;10359;53.596;22.520;2022-10-17T06:01:56;13.10;99.90
20400;DHT22;10359;53.596;22.520;2022-10-17T06:04:26;13.20;99.90
20400;DHT22;10359;53.596;22.520;2022-10-17T06:06:55;13.20;99.90
20400;DHT22;10359;53.596;22.520;2022-10-17T06:09:24;13.30;99.90
20400;DHT22;10359;53.596;22.520;2022-10-17T06:11:53;13.40;99.90
20400;DHT22;10359;53.596;22.520;2022-10-17T06:14:24;13.40;99.90
20400;DHT22;10359;53.596;22.520;2022-10-17T06:16:52;13.40;99.90
20400;DHT22;10359;53.596;22.520;2022-10-17T06:19:21;13.50;99.90
20400;DHT22;10359;53.596;22.520;2022-10-17T06:21:53;13.60;99.90
20400;DHT22;10359;53.596;22.520;2022-10-17T06:24:22;13.60;99.90
20400;DHT22;10359;53.596;22.520;2022-10-17T06:26:52;13.70;99.90
20400;DHT22;10359;53.596;22.520;2022-10-17T06:29:23;13.70;99.90
20400;DHT22;10359;53.596;22.520;2022-10-17T06:31:53;13.80;99.90
20400;DHT22;10359;53.596;22.520;2022-10-17T06:34:22;13.80;99.90
20400;DHT22;10359;53.596;22.520;2022-10-17T06:36:52;13.80;99.90
20400;DHT22;10359;53.596;22.520;2022-10-17T06:39:26;13.80;99.90
20400;DHT22;10359;53.596;22.520;2022-10-17T06:42:00;13.80;99.90
20400;DHT22;10359;53.596;22.520;2022-10-17T06:44:31;13.90;99.90
20400;DHT22;10359;53.596;22.520;2022-10-17T06:47:00;13.90;99.90
20400;DHT22;10359;53.596;22.520;2022-10-17T06:49:29;13.80;99.90
20400;DHT22;10359;53.596;22.520;2022-10-17T06:52:00;13.70;99.90
20400;DHT22;10359;53.596;22.520;2022-10-17T06:54:29;13.80;99.90
20400;DHT22;10359;53.596;22.520;2022-10-17T06:56:58;13.70;99.90
20400;DHT22;10359;53.596;22.520;2022-10-17T06:59:30;13.70;99.90
20400;DHT22;10359;53.596;22.520;2022-10-17T07:02:00;13.90;99.90
20400;DHT22;10359;53.596;22.520;2022-10-17T07:04:30;14.10;99.90
20400;DHT22;10359;53.596;22.520;2022-10-17T07:06:59;14.20;99.90
20400;DHT22;10359;53.596;22.520;2022-10-17T07:09:29;14.20;99.90
20400;DHT22;10359;53.596;22.520;2022-10-17T07:11:59;14.30;99.90
20400;DHT22;10359;53.596;22.520;2022-10-17T07:14:31;14.30;99.90
20400;DHT22;10359;53.596;22.520;2022-10-17T07:17:01;14.60;99.90
20400;DHT22;10359;53.596;22.520;2022-10-17T07:19:32;14.60;99.90
20400;DHT22;10359;53.596;22.520;2022-10-17T07:22:01;14.60;99.90
20400;DHT22;10359;53.596;22.520;2022-10-17T07:24:30;14.60;99.90
20400;DHT22;10359;53.596;22.520;2022-10-17T07:27:00;14.50;99.90
20400;DHT22;10359;53.596;22.520;2022-10-17T07:29:31;14.50;99.90
20400;DHT22;10359;53.596;22.520;2022-10-17T07:32:00;14.60;99.90
20400;DHT22;10359;53.596;22.520;2022-10-17T07:34:30;14.70;99.90
20400;DHT22;10359;53.596;22.520;2022-10-17T07:37:02;14.60;99.90
20400;DHT22;10359;53.596;22.520;2022-10-17T07:39:33;14.70;99.90
20400;DHT22;10359;53.596;22.520;2022-10-17T07:42:04;14.80;99.90
20400;DHT22;10359;53.596;22.520;2022-10-17T07:44:37;14.90;99.90
20400;DHT22;10359;53.596;22.520;2022-10-17T07:47:06;14.90;99.90
20400;DHT22;10359;53.596;22.520;2022-10-17T07:49:35;14.90;99.90
20400;DHT22;10359;53.596;22.520;2022-10-17T07:52:09;15.00;99.90
20400;DHT22;10359;53.596;22.520;2022-10-17T07:54:38;15.00;99.90
20400;DHT22;10359;53.596;22.520;2022-10-17T07:57:10;14.90;99.90
20400;DHT22;10359;53.596;22.520;2022-10-17T07:59:41;15.00;99.90
20400;DHT22;10359;53.596;22.520;2022-10-17T08:02:16;15.30;99.90
20400;DHT22;10359;53.596;22.520;2022-10-17T08:04:46;15.50;99.90
20400;DHT22;10359;53.596;22.520;2022-10-17T08:07:15;15.60;99.90
20400;DHT22;10359;53.596;22.520;2022-10-17T08:09:53;15.70;99.90
20400;DHT22;10359;53.596;22.520;2022-10-17T08:12:22;15.80;99.90
20400;DHT22;10359;53.596;22.520;2022-10-17T08:14:54;16.10;99.90
20400;DHT22;10359;53.596;22.520;2022-10-17T08:17:27;16.20;99.90
20400;DHT22;10359;53.596;22.520;2022-10-17T08:19:56;16.30;99.90
20400;DHT22;10359;53.596;22.520;2022-10-17T08:22:27;16.40;99.90
20400;DHT22;10359;53.596;22.520;2022-10-17T08:24:57;16.80;99.90
20400;DHT22;10359;53.596;22.520;2022-10-17T08:27:26;17.10;99.90
20400;DHT22;10359;53.596;22.520;2022-10-17T08:29:57;17.00;99.90
20400;DHT22;10359;53.596;22.520;2022-10-17T08:32:27;16.90;99.90
20400;DHT22;10359;53.596;22.520;2022-10-17T08:34:57;16.90;99.90
20400;DHT22;10359;53.596;22.520;2022-10-17T08:37:26;16.80;99.90
20400;DHT22;10359;53.596;22.520;2022-10-17T08:39:57;16.80;99.90
20400;DHT22;10359;53.596;22.520;2022-10-17T08:42:41;16.90;99.90
20400;DHT22;10359;53.596;22.520;2022-10-17T08:45:20;17.10;99.90
20400;DHT22;10359;53.596;22.520;2022-10-17T08:47:55;17.10;99.90
20400;DHT22;10359;53.596;22.520;2022-10-17T08:50:31;17.30;99.90
20400;DHT22;10359;53.596;22.520;2022-10-17T08:53:09;17.50;99.90
20400;DHT22;10359;53.596;22.520;2022-10-17T08:55:41;17.50;99.90
20400;DHT22;10359;53.596;22.520;2022-10-17T08:58:12;17.60;99.90
20400;DHT22;10359;53.596;22.520;2022-10-17T09:00:49;17.60;99.90
20400;DHT22;10359;53.596;22.520;2022-10-17T09:03:29;17.70;99.90
20400;DHT22;10359;53.596;22.520;2022-10-17T09:06:11;17.80;99.90
20400;DHT22;10359;53.596;22.520;2022-10-17T09:08:49;17.90;99.90
20400;DHT22;10359;53.596;22.520;2022-10-17T09:11:32;17.70;99.90
20400;DHT22;10359;53.596;22.520;2022-10-17T09:14:11;17.90;99.90
20400;DHT22;10359;53.596;22.520;2022-10-17T09:16:54;18.00;99.90
20400;DHT22;10359;53.596;22.520;2022-10-17T09:19:29;17.90;99.90
20400;DHT22;10359;53.596;22.520;2022-10-17T09:22:04;17.90;99.90
20400;DHT22;10359;53.596;22.520;2022-10-17T09:24:40;18.20;99.90
20400;DHT22;10359;53.596;22.520;2022-10-17T09:27:21;18.00;99.90
20400;DHT22;10359;53.596;22.520;2022-10-17T09:33:21;17.80;99.90
20400;DHT22;10359;53.596;22.520;2022-10-17T09:36:20;17.80;99.90
20400;DHT22;10359;53.596;22.520;2022-10-17T09:38:56;17.60;99.90
20400;DHT22;10359;53.596;22.520;2022-10-17T09:41:33;17.70;99.90
20400;DHT22;10359;53.596;22.520;2022-10-17T09:44:17;17.50;99.90
20400;DHT22;10359;53.596;22.520;2022-10-17T09:46:58;17.40;99.90
20400;DHT22;10359;53.596;22.520;2022-10-17T09:49:33;17.30;99.90
20400;DHT22;10359;53.596;22.520;2022-10-17T09:52:05;17.40;99.90
20400;DHT22;10359;53.596;22.520;2022-10-17T09:54:41;17.40;99.90
20400;DHT22;10359;53.596;22.520;2022-10-17T09:57:14;17.10;99.90
20400;DHT22;10359;53.596;22.520;2022-10-17T09:59:45;17.20;99.90
20400;DHT22;10359;53.596;22.520;2022-10-17T10:02:18;17.30;99.90
20400;DHT22;10359;53.596;22.520;2022-10-17T10:04:54;17.50;99.90
20400;DHT22;10359;53.596;22.520;2022-10-17T10:07:35;17.70;99.90
20400;DHT22;10359;53.596;22.520;2022-10-17T10:10:07;18.00;99.90
20400;DHT22;10359;53.596;22.520;2022-10-17T10:13:04;18.20;99.90
20400;DHT22;10359;53.596;22.520;2022-10-17T10:15:37;18.70;99.90
20400;DHT22;10359;53.596;22.520;2022-10-17T10:18:26;18.70;99.90
20400;DHT22;10359;53.596;22.520;2022-10-17T10:21:07;18.80;99.90
20400;DHT22;10359;53.596;22.520;2022-10-17T10:23:39;18.70;99.90
20400;DHT22;10359;53.596;22.520;2022-10-17T10:29:51;18.60;99.90
20400;DHT22;10359;53.596;22.520;2022-10-17T10:32:25;18.70;99.90
20400;DHT22;10359;53.596;22.520;2022-10-17T10:35:02;18.60;99.90
20400;DHT22;10359;53.596;22.520;2022-10-17T10:37:38;18.60;99.90
20400;DHT22;10359;53.596;22.520;2022-10-17T10:40:16;18.40;99.90
20400;DHT22;10359;53.596;22.520;2022-10-17T10:42:50;18.40;99.90
20400;DHT22;10359;53.596;22.520;2022-10-17T10:45:22;18.50;99.90
20400;DHT22;10359;53.596;22.520;2022-10-17T10:55:44;18.20;99.90
20400;DHT22;10359;53.596;22.520;2022-10-17T10:58:25;18.20;99.90
20400;DHT22;10359;53.596;22.520;2022-10-17T11:00:56;18.30;99.90
20400;DHT22;10359;53.596;22.520;2022-10-17T11:03:29;18.20;99.90
20400;DHT22;10359;53.596;22.520;2022-10-17T11:06:05;18.30;99.90
20400;DHT22;10359;53.596;22.520;2022-10-17T11:08:42;18.40;99.90
20400;DHT22;10359;53.596;22.520;2022-10-17T11:11:18;18.40;99.90
20400;DHT22;10359;53.596;22.520;2022-10-17T11:13:55;18.40;99.90
20400;DHT22;10359;53.596;22.520;2022-10-17T11:16:30;18.40;99.90
20400;DHT22;10359;53.596;22.520;2022-10-17T11:19:08;18.40;99.90
20400;DHT22;10359;53.596;22.520;2022-10-17T11:21:45;18.50;99.90
20400;DHT22;10359;53.596;22.520;2022-10-17T11:24:20;18.50;99.90
20400;DHT22;10359;53.596;22.520;2022-10-17T11:26:57;18.60;99.90
20400;DHT22;10359;53.596;22.520;2022-10-17T11:29:29;18.50;99.90
20400;DHT22;10359;53.596;22.520;2022-10-17T11:32:04;18.50;99.90
20400;DHT22;10359;53.596;22.520;2022-10-17T11:34:36;18.60;99.90
20400;DHT22;10359;53.596;22.520;2022-10-17T11:37:13;18.60;99.90
20400;DHT22;10359;53.596;22.520;2022-10-17T11:39:47;18.60;99.90
20400;DHT22;10359;53.596;22.520;2022-10-17T11:42:25;18.60;99.90
20400;DHT22;10359;53.596;22.520;2022-10-17T11:44:58;18.60;99.90
20400;DHT22;10359;53.596;22.520;2022-10-17T11:47:39;18.70;99.90
20400;DHT22;10359;53.596;22.520;2022-10-17T11:50:18;18.70;99.90
20400;DHT22;10359;53.596;22.520;2022-10-17T11:53:12;18.70;99.90
20400;DHT22;10359;53.596;22.520;2022-10-17T11:55:42;18.60;99.90
20400;DHT22;10359;53.596;22.520;2022-10-17T11:58:27;18.70;99.90
20400;DHT22;10359;53.596;22.520;2022-10-17T12:01:08;18.60;99.90
20400;DHT22;10359;53.596;22.520;2022-10-17T12:06:50;18.70;99.90
20400;DHT22;10359;53.596;22.520;2022-10-17T12:09:25;18.70;99.90
20400;DHT22;10359;53.596;22.520;2022-10-17T12:11:59;18.80;99.90
20400;DHT22;10359;53.596;22.520;2022-10-17T12:14:40;18.70;99.90
20400;DHT22;10359;53.596;22.520;2022-10-17T12:17:28;18.80;99.90
20400;DHT22;10359;53.596;22.520;2022-10-17T12:20:27;18.80;99.90
20400;DHT22;10359;53.596;22.520;2022-10-17T12:25:49;18.90;99.90
20400;DHT22;10359;53.596;22.520;2022-10-17T12:28:26;18.80;99.90
20400;DHT22;10359;53.596;22.520;2022-10-17T12:31:03;18.90;99.90
20400;DHT22;10359;53.596;22.520;2022-10-17T12:33:36;19.00;99.90
20400;DHT22;10359;53.596;22.520;2022-10-17T12:36:39;19.00;99.90
20400;DHT22;10359;53.596;22.520;2022-10-17T12:42:44;18.90;99.90
20400;DHT22;10359;53.596;22.520;2022-10-17T12:45:49;18.90;99.90
20400;DHT22;10359;53.596;22.520;2022-10-17T12:49:02;19.00;99.90
20400;DHT22;10359;53.596;22.520;2022-10-17T12:52:09;18.90;99.90
20400;DHT22;10359;53.596;22.520;2022-10-17T12:54:45;18.90;99.90
20400;DHT22;10359;53.596;22.520;2022-10-17T12:57:36;18.90;99.90
20400;DHT22;10359;53.596;22.520;2022-10-17T13:00:16;18.90;99.90
20400;DHT22;10359;53.596;22.520;2022-10-17T13:02:46;18.80;99.90
20400;DHT22;10359;53.596;22.520;2022-10-17T13:05:24;18.90;99.90
20400;DHT22;10359;53.596;22.520;2022-10-17T13:07:56;18.90;99.90
20400;DHT22;10359;53.596;22.520;2022-10-17T13:10:28;18.90;99.90
20400;DHT22;10359;53.596;22.520;2022-10-17T13:13:05;19.00;99.90
20400;DHT22;10359;53.596;22.520;2022-10-17T13:15:36;19.00;99.90
20400;DHT22;10359;53.596;22.520;2022-10-17T13:18:05;18.90;99.90
20400;DHT22;10359;53.596;22.520;2022-10-17T13:20:35;18.80;99.90
20400;DHT22;10359;53.596;22.520;2022-10-17T13:23:04;18.80;99.90
20400;DHT22;10359;53.596;22.520;2022-10-17T13:25:33;18.80;99.90
20400;DHT22;10359;53.596;22.520;2022-10-17T13:28:11;18.70;99.90
20400;DHT22;10359;53.596;22.520;2022-10-17T13:30:45;18.70;99.90
20400;DHT22;10359;53.596;22.520;2022-10-17T13:33:34;18.60;99.90
20400;DHT22;10359;53.596;22.520;2022-10-17T13:36:07;18.50;99.90
20400;DHT22;10359;53.596;22.520;2022-10-17T13:38:42;18.40;99.90
20400;DHT22;10359;53.596;22.520;2022-10-17T13:41:13;18.40;99.90
20400;DHT22;10359;53.596;22.520;2022-10-17T13:44:05;18.20;99.90
20400;DHT22;10359;53.596;22.520;2022-10-17T13:46:35;18.10;99.90
20400;DHT22;10359;53.596;22.520;2022-10-17T13:49:15;18.10;99.90
20400;DHT22;10359;53.596;22.520;2022-10-17T13:51:50;18.10;99.90
20400;DHT22;10359;53.596;22.520;2022-10-17T13:54:33;18.10;99.90
20400;DHT22;10359;53.596;22.520;2022-10-17T13:57:03;18.00;99.90
20400;DHT22;10359;53.596;22.520;2022-10-17T13:59:37;18.10;99.90
20400;DHT22;10359;53.596;22.520;2022-10-17T14:02:13;18.00;99.90
20400;DHT22;10359;53.596;22.520;2022-10-17T14:04:43;18.00;99.90
20400;DHT22;10359;53.596;22.520;2022-10-17T14:07:37;18.00;99.90
20400;DHT22;10359;53.596;22.520;2022-10-17T14:10:30;18.00;99.90
20400;DHT22;10359;53.596;22.520;2022-10-17T14:13:01;18.00;99.90
20400;DHT22;10359;53.596;22.520;2022-10-17T14:15:33;18.10;99.90
20400;DHT22;10359;53.596;22.520;2022-10-17T14:18:05;18.10;99.90
20400;DHT22;10359;53.596;22.520;2022-10-17T14:20:36;18.10;99.90
20400;DHT22;10359;53.596;22.520;2022-10-17T14:23:33;18.10;99.90
20400;DHT22;10359;53.596;22.520;2022-10-17T14:26:08;18.10;99.90
20400;DHT22;10359;53.596;22.520;2022-10-17T14:28:38;18.10;99.90
20400;DHT22;10359;53.596;22.520;2022-10-17T14:31:20;18.00;99.90
20400;DHT22;10359;53.596;22.520;2022-10-17T14:33:52;17.90;99.90
20400;DHT22;10359;53.596;22.520;2022-10-17T14:36:33;17.80;99.90
20400;DHT22;10359;53.596;22.520;2022-10-17T14:39:07;17.80;99.90
20400;DHT22;10359;53.596;22.520;2022-10-17T14:41:46;17.70;99.90
20400;DHT22;10359;53.596;22.520;2022-10-17T14:44:19;17.60;99.90
20400;DHT22;10359;53.596;22.520;2022-10-17T14:46:52;17.50;99.90
20400;DHT22;10359;53.596;22.520;2022-10-17T14:49:34;17.50;99.90
20400;DHT22;10359;53.596;22.520;2022-10-17T14:52:26;17.40;99.90
20400;DHT22;10359;53.596;22.520;2022-10-17T14:54:59;17.30;99.90
20400;DHT22;10359;53.596;22.520;2022-10-17T14:57:40;17.20;99.90
20400;DHT22;10359;53.596;22.520;2022-10-17T15:00:13;17.10;99.90
20400;DHT22;10359;53.596;22.520;2022-10-17T15:02:44;17.00;99.90
20400;DHT22;10359;53.596;22.520;2022-10-17T15:05:14;16.90;99.90
20400;DHT22;10359;53.596;22.520;2022-10-17T15:07:46;16.80;99.90
20400;DHT22;10359;53.596;22.520;2022-10-17T15:10:30;16.70;99.90
20400;DHT22;10359;53.596;22.520;2022-10-17T15:13:00;16.70;99.90
20400;DHT22;10359;53.596;22.520;2022-10-17T15:15:49;16.50;99.90
20400;DHT22;10359;53.596;22.520;2022-10-17T15:18:18;16.40;99.90
20400;DHT22;10359;53.596;22.520;2022-10-17T15:20:47;16.30;99.90
20400;DHT22;10359;53.596;22.520;2022-10-17T15:23:31;16.20;99.90
20400;DHT22;10359;53.596;22.520;2022-10-17T15:26:01;16.10;99.90
20400;DHT22;10359;53.596;22.520;2022-10-17T15:28:31;16.00;99.90
20400;DHT22;10359;53.596;22.520;2022-10-17T15:31:00;16.00;99.90
20400;DHT22;10359;53.596;22.520;2022-10-17T15:33:29;15.90;99.90
20400;DHT22;10359;53.596;22.520;2022-10-17T15:35:58;15.80;99.90
20400;DHT22;10359;53.596;22.520;2022-10-17T15:38:27;15.70;99.90
20400;DHT22;10359;53.596;22.520;2022-10-17T15:40:56;15.70;99.90
20400;DHT22;10359;53.596;22.520;2022-10-17T15:43:27;15.60;99.90
20400;DHT22;10359;53.596;22.520;2022-10-17T15:45:56;15.50;99.90
20400;DHT22;10359;53.596;22.520;2022-10-17T15:48:30;15.50;99.90
20400;DHT22;10359;53.596;22.520;2022-10-17T15:50:59;15.40;99.90
20400;DHT22;10359;53.596;22.520;2022-10-17T15:53:28;15.40;99.90
20400;DHT22;10359;53.596;22.520;2022-10-17T15:55:57;15.30;99.90
20400;DHT22;10359;53.596;22.520;2022-10-17T15:58:33;15.30;99.90
20400;DHT22;10359;53.596;22.520;2022-10-17T16:01:05;15.20;99.90
20400;DHT22;10359;53.596;22.520;2022-10-17T16:03:34;15.20;99.90
20400;DHT22;10359;53.596;22.520;2022-10-17T16:06:03;15.20;99.90
20400;DHT22;10359;53.596;22.520;2022-10-17T16:08:36;15.10;99.90
20400;DHT22;10359;53.596;22.520;2022-10-17T16:11:05;15.10;99.90
20400;DHT22;10359;53.596;22.520;2022-10-17T16:13:39;15.20;99.90
20400;DHT22;10359;53.596;22.520;2022-10-17T16:16:10;15.20;99.90
20400;DHT22;10359;53.596;22.520;2022-10-17T16:18:40;15.20;99.90
20400;DHT22;10359;53.596;22.520;2022-10-17T16:21:10;15.10;99.90
20400;DHT22;10359;53.596;22.520;2022-10-17T16:23:40;15.10;99.90
20400;DHT22;10359;53.596;22.520;2022-10-17T16:26:09;15.00;99.90
20400;DHT22;10359;53.596;22.520;2022-10-17T16:28:42;15.00;99.90
20400;DHT22;10359;53.596;22.520;2022-10-17T16:31:18;14.90;99.90